sensor_id;sensor_type;location;lat;lon;timestamp;P1;P2;P0
61592;PMS5003;47485;51.378;-1.342;2022-12-29T00:00:18;13;4;
61592;PMS5003;47485;51.378;-1.342;2022-12-29T00:02:46;3;3;
61592;PMS5003;47485;51.378;-1.342;2022-12-29T00:05:12;7;7;
61592;PMS5003;47485;51.378;-1.342;2022-12-29T00:07:39;6;4;
61592;PMS5003;47485;51.378;-1.342;2022-12-29T00:10:07;5;2;
61592;PMS5003;47485;51.378;-1.342;2022-12-29T00:12:35;5;4;
61592;PMS5003;47485;51.378;-1.342;2022-12-29T00:15:02;4;4;
61592;PMS5003;47485;51.378;-1.342;2022-12-29T00:17:28;8;5;
61592;PMS5003;47485;51.378;-1.342;2022-12-29T00:19:56;11;7;
61592;PMS5003;47485;51.378;-1.342;2022-12-29T00:22:22;9;4;
61592;PMS5003;47485;51.378;-1.342;2022-12-29T00:24:49;8;8;
61592;PMS5003;47485;51.378;-1.342;2022-12-29T00:27:15;8;4;
61592;PMS5003;47485;51.378;-1.342;2022-12-29T00:29:42;8;5;
61592;PMS5003;47485;51.378;-1.342;2022-12-29T00:32:09;9;4;
61592;PMS5003;47485;51.378;-1.342;2022-12-29T00:34:36;13;6;
61592;PMS5003;47485;51.378;-1.342;2022-12-29T00:37:03;10;4;
61592;PMS5003;47485;51.378;-1.342;2022-12-29T00:39:29;10;5;
61592;PMS5003;47485;51.378;-1.342;2022-12-29T00:41:56;10;1;
61592;PMS5003;47485;51.378;-1.342;2022-12-29T00:44:29;5;2;
61592;PMS5003;47485;51.378;-1.342;2022-12-29T00:46:56;7;5;
61592;PMS5003;47485;51.378;-1.342;2022-12-29T00:49:23;5;3;
61592;PMS5003;47485;51.378;-1.342;2022-12-29T00:51:50;10;6;
61592;PMS5003;47485;51.378;-1.342;2022-12-29T00:54:17;11;6;
61592;PMS5003;47485;51.378;-1.342;2022-12-29T00:56:45;11;7;
61592;PMS5003;47485;51.378;-1.342;2022-12-29T00:59:13;13;7;
61592;PMS5003;47485;51.378;-1.342;2022-12-29T01:01:41;9;5;
61592;PMS5003;47485;51.378;-1.342;2022-12-29T01:04:08;6;2;
61592;PMS5003;47485;51.378;-1.342;2022-12-29T01:06:37;5;2;
61592;PMS5003;47485;51.378;-1.342;2022-12-29T01:09:05;2;2;
61592;PMS5003;47485;51.378;-1.342;2022-12-29T01:11:32;8;6;
61592;PMS5003;47485;51.378;-1.342;2022-12-29T01:14:00;7;3;
61592;PMS5003;47485;51.378;-1.342;2022-12-29T01:16:28;5;5;
61592;PMS5003;47485;51.378;-1.342;2022-12-29T01:18:55;7;2;
61592;PMS5003;47485;51.378;-1.342;2022-12-29T01:21:21;10;4;
61592;PMS5003;47485;51.378;-1.342;2022-12-29T01:23:48;10;4;
61592;PMS5003;47485;51.378;-1.342;2022-12-29T01:26:15;8;3;
61592;PMS5003;47485;51.378;-1.342;2022-12-29T01:28:44;6;2;
61592;PMS5003;47485;51.378;-1.342;2022-12-29T01:31:12;5;4;
61592;PMS5003;47485;51.378;-1.342;2022-12-29T01:33:41;6;2;
61592;PMS5003;47485;51.378;-1.342;2022-12-29T01:36:09;10;3;
61592;PMS5003;47485;51.378;-1.342;2022-12-29T01:38:38;7;3;
61592;PMS5003;47485;51.378;-1.342;2022-12-29T01:41:06;5;2;
61592;PMS5003;47485;51.378;-1.342;2022-12-29T01:43:38;8;4;
61592;PMS5003;47485;51.378;-1.342;2022-12-29T01:46:08;10;6;
61592;PMS5003;47485;51.378;-1.342;2022-12-29T01:48:45;9;5;
61592;PMS5003;47485;51.378;-1.342;2022-12-29T01:51:14;8;5;
61592;PMS5003;47485;51.378;-1.342;2022-12-29T01:53:42;10;3;
61592;PMS5003;47485;51.378;-1.342;2022-12-29T01:56:11;4;2;
61592;PMS5003;47485;51.378;-1.342;2022-12-29T01:58:44;5;4;
61592;PMS5003;47485;51.378;-1.342;2022-12-29T02:01:13;10;4;
61592;PMS5003;47485;51.378;-1.342;2022-12-29T02:03:41;9;6;
61592;PMS5003;47485;51.378;-1.342;2022-12-29T02:06:10;9;5;
61592;PMS5003;47485;51.378;-1.342;2022-12-29T02:08:40;12;5;
61592;PMS5003;47485;51.378;-1.342;2022-12-29T02:11:08;9;5;
61592;PMS5003;47485;51.378;-1.342;2022-12-29T02:13:35;7;3;
61592;PMS5003;47485;51.378;-1.342;2022-12-29T02:16:05;5;4;
61592;PMS5003;47485;51.378;-1.342;2022-12-29T02:18:47;5;3;
61592;PMS5003;47485;51.378;-1.342;2022-12-29T02:21:31;7;4;
61592;PMS5003;47485;51.378;-1.342;2022-12-29T02:26:27;16;8;
61592;PMS5003;47485;51.378;-1.342;2022-12-29T02:29:21;7;6;
61592;PMS5003;47485;51.378;-1.342;2022-12-29T02:32:10;13;7;
61592;PMS5003;47485;51.378;-1.342;2022-12-29T02:34:46;15;9;
61592;PMS5003;47485;51.378;-1.342;2022-12-29T02:37:20;11;7;
61592;PMS5003;47485;51.378;-1.342;2022-12-29T02:39:52;6;6;
61592;PMS5003;47485;51.378;-1.342;2022-12-29T02:42:29;10;5;
61592;PMS5003;47485;51.378;-1.342;2022-12-29T02:45:03;12;8;
61592;PMS5003;47485;51.378;-1.342;2022-12-29T02:47:35;10;8;
61592;PMS5003;47485;51.378;-1.342;2022-12-29T02:50:08;10;7;
61592;PMS5003;47485;51.378;-1.342;2022-12-29T02:52:43;5;3;
61592;PMS5003;47485;51.378;-1.342;2022-12-29T02:55:14;11;5;
61592;PMS5003;47485;51.378;-1.342;2022-12-29T02:57:41;7;5;
61592;PMS5003;47485;51.378;-1.342;2022-12-29T03:00:09;5;3;
61592;PMS5003;47485;51.378;-1.342;2022-12-29T03:02:44;11;5;
61592;PMS5003;47485;51.378;-1.342;2022-12-29T03:05:30;9;3;
61592;PMS5003;47485;51.378;-1.342;2022-12-29T03:08:09;8;4;
61592;PMS5003;47485;51.378;-1.342;2022-12-29T03:10:47;14;7;
61592;PMS5003;47485;51.378;-1.342;2022-12-29T03:13:20;10;6;
61592;PMS5003;47485;51.378;-1.342;2022-12-29T03:15:54;9;7;
61592;PMS5003;47485;51.378;-1.342;2022-12-29T03:18:35;7;2;
61592;PMS5003;47485;51.378;-1.342;2022-12-29T03:21:08;8;2;
61592;PMS5003;47485;51.378;-1.342;2022-12-29T03:23:38;4;2;
61592;PMS5003;47485;51.378;-1.342;2022-12-29T03:26:10;5;2;
61592;PMS5003;47485;51.378;-1.342;2022-12-29T03:28:39;7;5;
61592;PMS5003;47485;51.378;-1.342;2022-12-29T03:31:10;4;4;
61592;PMS5003;47485;51.378;-1.342;2022-12-29T03:33:38;13;5;
61592;PMS5003;47485;51.378;-1.342;2022-12-29T03:36:09;5;4;
61592;PMS5003;47485;51.378;-1.342;2022-12-29T03:38:42;7;2;
61592;PMS5003;47485;51.378;-1.342;2022-12-29T03:41:14;2;2;
61592;PMS5003;47485;51.378;-1.342;2022-12-29T03:43:44;6;3;
61592;PMS5003;47485;51.378;-1.342;2022-12-29T03:46:12;11;9;
61592;PMS5003;47485;51.378;-1.342;2022-12-29T03:48:39;5;4;
61592;PMS5003;47485;51.378;-1.342;2022-12-29T03:51:07;13;7;
61592;PMS5003;47485;51.378;-1.342;2022-12-29T03:53:34;7;2;
61592;PMS5003;47485;51.378;-1.342;2022-12-29T03:56:02;7;2;
61592;PMS5003;47485;51.378;-1.342;2022-12-29T03:58:29;5;2;
61592;PMS5003;47485;51.378;-1.342;2022-12-29T04:00:56;3;2;
61592;PMS5003;47485;51.378;-1.342;2022-12-29T04:03:23;5;3;
61592;PMS5003;47485;51.378;-1.342;2022-12-29T04:05:50;5;2;
61592;PMS5003;47485;51.378;-1.342;2022-12-29T04:08:17;6;3;
61592;PMS5003;47485;51.378;-1.342;2022-12-29T04:10:44;4;2;
61592;PMS5003;47485;51.378;-1.342;2022-12-29T04:13:11;6;3;
61592;PMS5003;47485;51.378;-1.342;2022-12-29T04:15:38;7;4;
61592;PMS5003;47485;51.378;-1.342;2022-12-29T04:18:05;1;0;
61592;PMS5003;47485;51.378;-1.342;2022-12-29T04:20:32;2;1;
61592;PMS5003;47485;51.378;-1.342;2022-12-29T04:23:00;5;1;
61592;PMS5003;47485;51.378;-1.342;2022-12-29T04:25:28;4;1;
61592;PMS5003;47485;51.378;-1.342;2022-12-29T04:27:57;3;0;
61592;PMS5003;47485;51.378;-1.342;2022-12-29T04:30:24;3;1;
61592;PMS5003;47485;51.378;-1.342;2022-12-29T04:32:51;0;0;
61592;PMS5003;47485;51.378;-1.342;2022-12-29T04:35:19;1;1;
61592;PMS5003;47485;51.378;-1.342;2022-12-29T04:37:47;7;3;
61592;PMS5003;47485;51.378;-1.342;2022-12-29T04:40:15;5;2;
61592;PMS5003;47485;51.378;-1.342;2022-12-29T04:42:42;1;1;
61592;PMS5003;47485;51.378;-1.342;2022-12-29T04:45:09;2;0;
61592;PMS5003;47485;51.378;-1.342;2022-12-29T04:47:37;1;0;
61592;PMS5003;47485;51.378;-1.342;2022-12-29T04:50:05;0;0;
61592;PMS5003;47485;51.378;-1.342;2022-12-29T04:52:34;0;0;
61592;PMS5003;47485;51.378;-1.342;2022-12-29T04:55:02;3;0;
61592;PMS5003;47485;51.378;-1.342;2022-12-29T04:57:30;3;1;
61592;PMS5003;47485;51.378;-1.342;2022-12-29T04:59:57;4;0;
61592;PMS5003;47485;51.378;-1.342;2022-12-29T05:02:24;2;0;
61592;PMS5003;47485;51.378;-1.342;2022-12-29T05:04:52;2;0;
61592;PMS5003;47485;51.378;-1.342;2022-12-29T05:07:19;2;1;
61592;PMS5003;47485;51.378;-1.342;2022-12-29T05:09:46;0;0;
61592;PMS5003;47485;51.378;-1.342;2022-12-29T05:12:14;3;1;
61592;PMS5003;47485;51.378;-1.342;2022-12-29T05:14:40;1;1;
61592;PMS5003;47485;51.378;-1.342;2022-12-29T05:17:08;5;4;
61592;PMS5003;47485;51.378;-1.342;2022-12-29T05:19:36;1;0;
61592;PMS5003;47485;51.378;-1.342;2022-12-29T05:22:03;1;0;
61592;PMS5003;47485;51.378;-1.342;2022-12-29T05:24:31;2;1;
61592;PMS5003;47485;51.378;-1.342;2022-12-29T05:26:58;3;0;
61592;PMS5003;47485;51.378;-1.342;2022-12-29T05:29:25;2;2;
61592;PMS5003;47485;51.378;-1.342;2022-12-29T05:31:52;3;0;
61592;PMS5003;47485;51.378;-1.342;2022-12-29T05:34:19;2;1;
61592;PMS5003;47485;51.378;-1.342;2022-12-29T05:36:46;5;4;
61592;PMS5003;47485;51.378;-1.342;2022-12-29T05:39:14;6;5;
61592;PMS5003;47485;51.378;-1.342;2022-12-29T05:41:41;2;1;
61592;PMS5003;47485;51.378;-1.342;2022-12-29T05:44:09;2;0;
61592;PMS5003;47485;51.378;-1.342;2022-12-29T05:46:37;3;1;
61592;PMS5003;47485;51.378;-1.342;2022-12-29T05:49:05;4;3;
61592;PMS5003;47485;51.378;-1.342;2022-12-29T05:51:32;4;1;
61592;PMS5003;47485;51.378;-1.342;2022-12-29T05:54:00;2;2;
61592;PMS5003;47485;51.378;-1.342;2022-12-29T05:56:27;3;1;
61592;PMS5003;47485;51.378;-1.342;2022-12-29T05:58:54;5;1;
61592;PMS5003;47485;51.378;-1.342;2022-12-29T06:01:21;1;1;
61592;PMS5003;47485;51.378;-1.342;2022-12-29T06:03:49;2;0;
61592;PMS5003;47485;51.378;-1.342;2022-12-29T06:06:15;0;0;
61592;PMS5003;47485;51.378;-1.342;2022-12-29T06:08:42;1;1;
61592;PMS5003;47485;51.378;-1.342;2022-12-29T06:11:10;0;0;
61592;PMS5003;47485;51.378;-1.342;2022-12-29T06:13:38;2;1;
61592;PMS5003;47485;51.378;-1.342;2022-12-29T06:16:06;2;1;
61592;PMS5003;47485;51.378;-1.342;2022-12-29T06:18:33;2;2;
61592;PMS5003;47485;51.378;-1.342;2022-12-29T06:21:01;2;2;
61592;PMS5003;47485;51.378;-1.342;2022-12-29T06:23:28;1;1;
61592;PMS5003;47485;51.378;-1.342;2022-12-29T06:25:55;2;2;
61592;PMS5003;47485;51.378;-1.342;2022-12-29T06:28:22;5;0;
61592;PMS5003;47485;51.378;-1.342;2022-12-29T06:30:49;1;1;
61592;PMS5003;47485;51.378;-1.342;2022-12-29T06:33:15;1;1;
61592;PMS5003;47485;51.378;-1.342;2022-12-29T06:35:42;0;0;
61592;PMS5003;47485;51.378;-1.342;2022-12-29T06:38:09;3;1;
61592;PMS5003;47485;51.378;-1.342;2022-12-29T06:40:36;1;0;
61592;PMS5003;47485;51.378;-1.342;2022-12-29T06:43:03;4;1;
61592;PMS5003;47485;51.378;-1.342;2022-12-29T06:45:29;2;0;
61592;PMS5003;47485;51.378;-1.342;2022-12-29T06:47:56;1;1;
61592;PMS5003;47485;51.378;-1.342;2022-12-29T06:50:23;1;1;
61592;PMS5003;47485;51.378;-1.342;2022-12-29T06:52:51;1;1;
61592;PMS5003;47485;51.378;-1.342;2022-12-29T06:55:18;2;1;
61592;PMS5003;47485;51.378;-1.342;2022-12-29T06:57:46;0;0;
61592;PMS5003;47485;51.378;-1.342;2022-12-29T07:00:13;3;0;
61592;PMS5003;47485;51.378;-1.342;2022-12-29T07:02:41;2;1;
61592;PMS5003;47485;51.378;-1.342;2022-12-29T07:05:08;3;1;
61592;PMS5003;47485;51.378;-1.342;2022-12-29T07:07:36;4;0;
61592;PMS5003;47485;51.378;-1.342;2022-12-29T07:10:04;0;0;
61592;PMS5003;47485;51.378;-1.342;2022-12-29T07:12:32;1;1;
61592;PMS5003;47485;51.378;-1.342;2022-12-29T07:14:59;1;0;
61592;PMS5003;47485;51.378;-1.342;2022-12-29T07:17:26;0;0;
61592;PMS5003;47485;51.378;-1.342;2022-12-29T07:19:53;2;0;
61592;PMS5003;47485;51.378;-1.342;2022-12-29T07:22:21;3;0;
61592;PMS5003;47485;51.378;-1.342;2022-12-29T07:24:48;2;0;
61592;PMS5003;47485;51.378;-1.342;2022-12-29T07:27:15;1;0;
61592;PMS5003;47485;51.378;-1.342;2022-12-29T07:29:42;1;1;
61592;PMS5003;47485;51.378;-1.342;2022-12-29T07:32:09;0;0;
61592;PMS5003;47485;51.378;-1.342;2022-12-29T07:34:36;0;0;
61592;PMS5003;47485;51.378;-1.342;2022-12-29T07:37:03;4;1;
61592;PMS5003;47485;51.378;-1.342;2022-12-29T07:39:30;1;0;
61592;PMS5003;47485;51.378;-1.342;2022-12-29T07:41:57;4;0;
61592;PMS5003;47485;51.378;-1.342;2022-12-29T07:44:24;1;0;
61592;PMS5003;47485;51.378;-1.342;2022-12-29T07:46:50;0;0;
61592;PMS5003;47485;51.378;-1.342;2022-12-29T07:49:17;1;0;
61592;PMS5003;47485;51.378;-1.342;2022-12-29T07:51:44;2;1;
61592;PMS5003;47485;51.378;-1.342;2022-12-29T07:54:11;1;1;
61592;PMS5003;47485;51.378;-1.342;2022-12-29T07:56:39;1;1;
61592;PMS5003;47485;51.378;-1.342;2022-12-29T07:59:06;1;1;
61592;PMS5003;47485;51.378;-1.342;2022-12-29T08:01:33;4;1;
61592;PMS5003;47485;51.378;-1.342;2022-12-29T08:04:00;2;1;
61592;PMS5003;47485;51.378;-1.342;2022-12-29T08:06:27;2;0;
61592;PMS5003;47485;51.378;-1.342;2022-12-29T08:08:54;3;0;
61592;PMS5003;47485;51.378;-1.342;2022-12-29T08:11:22;2;1;
61592;PMS5003;47485;51.378;-1.342;2022-12-29T08:13:48;0;0;
61592;PMS5003;47485;51.378;-1.342;2022-12-29T08:16:15;2;1;
61592;PMS5003;47485;51.378;-1.342;2022-12-29T08:18:42;4;3;
61592;PMS5003;47485;51.378;-1.342;2022-12-29T08:21:10;5;2;
61592;PMS5003;47485;51.378;-1.342;2022-12-29T08:23:38;2;0;
61592;PMS5003;47485;51.378;-1.342;2022-12-29T08:26:05;1;1;
61592;PMS5003;47485;51.378;-1.342;2022-12-29T08:28:32;2;2;
61592;PMS5003;47485;51.378;-1.342;2022-12-29T08:31:00;0;0;
61592;PMS5003;47485;51.378;-1.342;2022-12-29T08:33:29;1;1;
61592;PMS5003;47485;51.378;-1.342;2022-12-29T08:35:58;1;1;
61592;PMS5003;47485;51.378;-1.342;2022-12-29T08:38:26;2;1;
61592;PMS5003;47485;51.378;-1.342;2022-12-29T08:40:53;2;0;
61592;PMS5003;47485;51.378;-1.342;2022-12-29T08:43:20;3;1;
61592;PMS5003;47485;51.378;-1.342;2022-12-29T08:45:48;2;1;
61592;PMS5003;47485;51.378;-1.342;2022-12-29T08:48:15;1;1;
61592;PMS5003;47485;51.378;-1.342;2022-12-29T08:50:42;0;0;
61592;PMS5003;47485;51.378;-1.342;2022-12-29T08:53:10;2;1;
61592;PMS5003;47485;51.378;-1.342;2022-12-29T08:55:37;3;0;
61592;PMS5003;47485;51.378;-1.342;2022-12-29T08:58:05;0;0;
61592;PMS5003;47485;51.378;-1.342;2022-12-29T09:00:32;1;0;
61592;PMS5003;47485;51.378;-1.342;2022-12-29T09:02:59;1;0;
61592;PMS5003;47485;51.378;-1.342;2022-12-29T09:05:25;0;0;
61592;PMS5003;47485;51.378;-1.342;2022-12-29T09:07:52;1;0;
61592;PMS5003;47485;51.378;-1.342;2022-12-29T09:10:19;0;0;
61592;PMS5003;47485;51.378;-1.342;2022-12-29T09:12:46;1;0;
61592;PMS5003;47485;51.378;-1.342;2022-12-29T09:15:13;1;1;
61592;PMS5003;47485;51.378;-1.342;2022-12-29T09:17:40;0;0;
61592;PMS5003;47485;51.378;-1.342;2022-12-29T09:20:07;0;0;
61592;PMS5003;47485;51.378;-1.342;2022-12-29T09:22:36;1;0;
61592;PMS5003;47485;51.378;-1.342;2022-12-29T09:25:03;1;1;
61592;PMS5003;47485;51.378;-1.342;2022-12-29T09:27:31;1;0;
61592;PMS5003;47485;51.378;-1.342;2022-12-29T09:29:58;0;0;
61592;PMS5003;47485;51.378;-1.342;2022-12-29T09:32:26;0;0;
61592;PMS5003;47485;51.378;-1.342;2022-12-29T09:34:54;0;0;
61592;PMS5003;47485;51.378;-1.342;2022-12-29T09:37:21;0;0;
61592;PMS5003;47485;51.378;-1.342;2022-12-29T09:39:48;0;0;
61592;PMS5003;47485;51.378;-1.342;2022-12-29T09:42:16;2;0;
61592;PMS5003;47485;51.378;-1.342;2022-12-29T09:44:54;0;0;
61592;PMS5003;47485;51.378;-1.342;2022-12-29T09:47:30;0;0;
61592;PMS5003;47485;51.378;-1.342;2022-12-29T09:49:58;2;1;
61592;PMS5003;47485;51.378;-1.342;2022-12-29T09:52:30;0;0;
61592;PMS5003;47485;51.378;-1.342;2022-12-29T09:55:03;0;0;
61592;PMS5003;47485;51.378;-1.342;2022-12-29T09:57:38;1;1;
61592;PMS5003;47485;51.378;-1.342;2022-12-29T10:00:11;1;1;
61592;PMS5003;47485;51.378;-1.342;2022-12-29T10:02:40;4;0;
61592;PMS5003;47485;51.378;-1.342;2022-12-29T10:05:45;1;0;
61592;PMS5003;47485;51.378;-1.342;2022-12-29T10:08:21;1;1;
61592;PMS5003;47485;51.378;-1.342;2022-12-29T10:10:59;1;0;
61592;PMS5003;47485;51.378;-1.342;2022-12-29T10:13:36;1;0;
61592;PMS5003;47485;51.378;-1.342;2022-12-29T10:16:14;0;0;
61592;PMS5003;47485;51.378;-1.342;2022-12-29T10:18:48;0;0;
61592;PMS5003;47485;51.378;-1.342;2022-12-29T10:21:28;0;0;
61592;PMS5003;47485;51.378;-1.342;2022-12-29T10:24:07;3;2;
61592;PMS5003;47485;51.378;-1.342;2022-12-29T10:26:39;4;2;
61592;PMS5003;47485;51.378;-1.342;2022-12-29T10:29:11;1;0;
61592;PMS5003;47485;51.378;-1.342;2022-12-29T10:31:43;1;1;
61592;PMS5003;47485;51.378;-1.342;2022-12-29T10:34:14;2;2;
61592;PMS5003;47485;51.378;-1.342;2022-12-29T10:36:47;0;0;
61592;PMS5003;47485;51.378;-1.342;2022-12-29T10:39:17;3;0;
61592;PMS5003;47485;51.378;-1.342;2022-12-29T10:41:49;1;0;
61592;PMS5003;47485;51.378;-1.342;2022-12-29T10:44:21;0;0;
61592;PMS5003;47485;51.378;-1.342;2022-12-29T10:46:52;0;0;
61592;PMS5003;47485;51.378;-1.342;2022-12-29T10:49:23;3;0;
61592;PMS5003;47485;51.378;-1.342;2022-12-29T10:51:54;1;0;
61592;PMS5003;47485;51.378;-1.342;2022-12-29T10:54:25;2;1;
61592;PMS5003;47485;51.378;-1.342;2022-12-29T10:56:56;4;1;
61592;PMS5003;47485;51.378;-1.342;2022-12-29T10:59:28;4;0;
61592;PMS5003;47485;51.378;-1.342;2022-12-29T11:01:59;0;0;
61592;PMS5003;47485;51.378;-1.342;2022-12-29T11:04:33;6;2;
61592;PMS5003;47485;51.378;-1.342;2022-12-29T11:07:09;4;0;
61592;PMS5003;47485;51.378;-1.342;2022-12-29T11:09:37;3;2;
61592;PMS5003;47485;51.378;-1.342;2022-12-29T11:12:19;8;6;
61592;PMS5003;47485;51.378;-1.342;2022-12-29T11:15:00;5;4;
61592;PMS5003;47485;51.378;-1.342;2022-12-29T11:17:42;2;1;
61592;PMS5003;47485;51.378;-1.342;2022-12-29T11:20:19;2;1;
61592;PMS5003;47485;51.378;-1.342;2022-12-29T11:22:58;4;0;
61592;PMS5003;47485;51.378;-1.342;2022-12-29T11:25:25;2;1;
61592;PMS5003;47485;51.378;-1.342;2022-12-29T11:27:56;2;1;
61592;PMS5003;47485;51.378;-1.342;2022-12-29T11:30:27;4;1;
61592;PMS5003;47485;51.378;-1.342;2022-12-29T11:32:57;7;2;
61592;PMS5003;47485;51.378;-1.342;2022-12-29T11:35:29;0;0;
61592;PMS5003;47485;51.378;-1.342;2022-12-29T11:37:58;9;4;
61592;PMS5003;47485;51.378;-1.342;2022-12-29T11:40:26;3;3;
61592;PMS5003;47485;51.378;-1.342;2022-12-29T11:42:54;1;1;
61592;PMS5003;47485;51.378;-1.342;2022-12-29T11:45:23;1;1;
61592;PMS5003;47485;51.378;-1.342;2022-12-29T11:47:53;5;2;
61592;PMS5003;47485;51.378;-1.342;2022-12-29T11:50:24;4;0;
61592;PMS5003;47485;51.378;-1.342;2022-12-29T11:52:57;5;1;
61592;PMS5003;47485;51.378;-1.342;2022-12-29T11:55:26;4;2;
61592;PMS5003;47485;51.378;-1.342;2022-12-29T11:57:55;3;2;
61592;PMS5003;47485;51.378;-1.342;2022-12-29T12:00:24;6;1;
61592;PMS5003;47485;51.378;-1.342;2022-12-29T12:02:54;8;2;
61592;PMS5003;47485;51.378;-1.342;2022-12-29T12:05:27;2;1;
61592;PMS5003;47485;51.378;-1.342;2022-12-29T12:08:04;5;2;
61592;PMS5003;47485;51.378;-1.342;2022-12-29T12:10:39;3;2;
61592;PMS5003;47485;51.378;-1.342;2022-12-29T12:13:14;1;1;
61592;PMS5003;47485;51.378;-1.342;2022-12-29T12:15:48;3;2;
61592;PMS5003;47485;51.378;-1.342;2022-12-29T12:18:21;2;2;
61592;PMS5003;47485;51.378;-1.342;2022-12-29T12:20:57;0;0;
61592;PMS5003;47485;51.378;-1.342;2022-12-29T12:23:33;2;1;
61592;PMS5003;47485;51.378;-1.342;2022-12-29T12:26:10;4;3;
61592;PMS5003;47485;51.378;-1.342;2022-12-29T12:28:43;2;1;
61592;PMS5003;47485;51.378;-1.342;2022-12-29T12:31:17;4;0;
61592;PMS5003;47485;51.378;-1.342;2022-12-29T12:33:50;4;1;
61592;PMS5003;47485;51.378;-1.342;2022-12-29T12:36:29;3;1;
61592;PMS5003;47485;51.378;-1.342;2022-12-29T12:39:11;2;1;
61592;PMS5003;47485;51.378;-1.342;2022-12-29T12:41:46;5;3;
61592;PMS5003;47485;51.378;-1.342;2022-12-29T12:44:26;10;6;
61592;PMS5003;47485;51.378;-1.342;2022-12-29T12:47:01;4;1;
61592;PMS5003;47485;51.378;-1.342;2022-12-29T12:49:48;3;0;
61592;PMS5003;47485;51.378;-1.342;2022-12-29T12:52:38;2;1;
61592;PMS5003;47485;51.378;-1.342;2022-12-29T12:55:22;4;2;
61592;PMS5003;47485;51.378;-1.342;2022-12-29T12:58:04;4;2;
61592;PMS5003;47485;51.378;-1.342;2022-12-29T13:00:49;1;1;
61592;PMS5003;47485;51.378;-1.342;2022-12-29T13:03:29;3;1;
61592;PMS5003;47485;51.378;-1.342;2022-12-29T13:06:11;8;2;
61592;PMS5003;47485;51.378;-1.342;2022-12-29T13:08:50;4;2;
61592;PMS5003;47485;51.378;-1.342;2022-12-29T13:11:29;3;2;
61592;PMS5003;47485;51.378;-1.342;2022-12-29T13:14:09;3;3;
61592;PMS5003;47485;51.378;-1.342;2022-12-29T13:16:47;6;1;
61592;PMS5003;47485;51.378;-1.342;2022-12-29T13:19:21;3;2;
61592;PMS5003;47485;51.378;-1.342;2022-12-29T13:21:58;3;3;
61592;PMS5003;47485;51.378;-1.342;2022-12-29T13:24:36;0;0;
61592;PMS5003;47485;51.378;-1.342;2022-12-29T13:27:15;2;1;
61592;PMS5003;47485;51.378;-1.342;2022-12-29T13:29:47;3;2;
61592;PMS5003;47485;51.378;-1.342;2022-12-29T13:32:24;2;1;
61592;PMS5003;47485;51.378;-1.342;2022-12-29T13:35:04;2;0;
61592;PMS5003;47485;51.378;-1.342;2022-12-29T13:37:44;2;0;
61592;PMS5003;47485;51.378;-1.342;2022-12-29T13:40:15;17;15;
61592;PMS5003;47485;51.378;-1.342;2022-12-29T13:42:45;10;3;
61592;PMS5003;47485;51.378;-1.342;2022-12-29T13:45:13;6;5;
61592;PMS5003;47485;51.378;-1.342;2022-12-29T13:47:44;2;0;
61592;PMS5003;47485;51.378;-1.342;2022-12-29T13:50:15;2;2;
61592;PMS5003;47485;51.378;-1.342;2022-12-29T13:52:44;2;2;
61592;PMS5003;47485;51.378;-1.342;2022-12-29T13:55:24;1;0;
61592;PMS5003;47485;51.378;-1.342;2022-12-29T13:58:00;7;4;
61592;PMS5003;47485;51.378;-1.342;2022-12-29T14:00:35;2;2;
61592;PMS5003;47485;51.378;-1.342;2022-12-29T14:03:16;4;1;
61592;PMS5003;47485;51.378;-1.342;2022-12-29T14:06:04;2;1;
61592;PMS5003;47485;51.378;-1.342;2022-12-29T14:08:40;3;2;
61592;PMS5003;47485;51.378;-1.342;2022-12-29T14:11:09;2;0;
61592;PMS5003;47485;51.378;-1.342;2022-12-29T14:13:38;5;2;
61592;PMS5003;47485;51.378;-1.342;2022-12-29T14:16:07;4;1;
61592;PMS5003;47485;51.378;-1.342;2022-12-29T14:18:41;2;1;
61592;PMS5003;47485;51.378;-1.342;2022-12-29T14:21:10;2;1;
61592;PMS5003;47485;51.378;-1.342;2022-12-29T14:23:46;5;1;
61592;PMS5003;47485;51.378;-1.342;2022-12-29T14:26:15;2;0;
61592;PMS5003;47485;51.378;-1.342;2022-12-29T14:28:45;5;2;
61592;PMS5003;47485;51.378;-1.342;2022-12-29T14:31:45;6;3;
61592;PMS5003;47485;51.378;-1.342;2022-12-29T14:34:16;3;1;
61592;PMS5003;47485;51.378;-1.342;2022-12-29T14:36:55;7;2;
61592;PMS5003;47485;51.378;-1.342;2022-12-29T14:39:28;3;2;
61592;PMS5003;47485;51.378;-1.342;2022-12-29T14:42:00;5;2;
61592;PMS5003;47485;51.378;-1.342;2022-12-29T14:44:29;5;3;
61592;PMS5003;47485;51.378;-1.342;2022-12-29T14:46:56;2;1;
61592;PMS5003;47485;51.378;-1.342;2022-12-29T14:49:26;5;1;
61592;PMS5003;47485;51.378;-1.342;2022-12-29T14:52:03;5;3;
61592;PMS5003;47485;51.378;-1.342;2022-12-29T14:54:40;1;1;
61592;PMS5003;47485;51.378;-1.342;2022-12-29T14:57:13;3;1;
61592;PMS5003;47485;51.378;-1.342;2022-12-29T14:59:45;1;1;
61592;PMS5003;47485;51.378;-1.342;2022-12-29T15:02:15;4;4;
61592;PMS5003;47485;51.378;-1.342;2022-12-29T15:04:45;7;2;
61592;PMS5003;47485;51.378;-1.342;2022-12-29T15:07:13;5;2;
61592;PMS5003;47485;51.378;-1.342;2022-12-29T15:09:41;5;3;
61592;PMS5003;47485;51.378;-1.342;2022-12-29T15:12:12;5;3;
61592;PMS5003;47485;51.378;-1.342;2022-12-29T15:14:49;1;1;
61592;PMS5003;47485;51.378;-1.342;2022-12-29T15:17:26;1;1;
61592;PMS5003;47485;51.378;-1.342;2022-12-29T15:19:54;5;2;
61592;PMS5003;47485;51.378;-1.342;2022-12-29T15:22:21;3;3;
61592;PMS5003;47485;51.378;-1.342;2022-12-29T15:24:49;1;1;
61592;PMS5003;47485;51.378;-1.342;2022-12-29T15:27:19;1;0;
61592;PMS5003;47485;51.378;-1.342;2022-12-29T15:29:50;7;2;
61592;PMS5003;47485;51.378;-1.342;2022-12-29T15:32:23;5;5;
61592;PMS5003;47485;51.378;-1.342;2022-12-29T15:34:52;7;2;
61592;PMS5003;47485;51.378;-1.342;2022-12-29T15:37:21;1;1;
61592;PMS5003;47485;51.378;-1.342;2022-12-29T15:39:50;2;1;
61592;PMS5003;47485;51.378;-1.342;2022-12-29T15:42:23;4;2;
61592;PMS5003;47485;51.378;-1.342;2022-12-29T15:44:58;4;2;
61592;PMS5003;47485;51.378;-1.342;2022-12-29T15:47:29;1;1;
61592;PMS5003;47485;51.378;-1.342;2022-12-29T15:49:58;2;0;
61592;PMS5003;47485;51.378;-1.342;2022-12-29T15:52:30;1;1;
61592;PMS5003;47485;51.378;-1.342;2022-12-29T15:54:59;3;2;
61592;PMS5003;47485;51.378;-1.342;2022-12-29T15:57:29;7;2;
61592;PMS5003;47485;51.378;-1.342;2022-12-29T15:59:57;2;1;
61592;PMS5003;47485;51.378;-1.342;2022-12-29T16:02:24;2;1;
61592;PMS5003;47485;51.378;-1.342;2022-12-29T16:04:51;4;3;
61592;PMS5003;47485;51.378;-1.342;2022-12-29T16:07:24;2;2;
61592;PMS5003;47485;51.378;-1.342;2022-12-29T16:09:54;4;2;
61592;PMS5003;47485;51.378;-1.342;2022-12-29T16:12:22;2;0;
61592;PMS5003;47485;51.378;-1.342;2022-12-29T16:14:53;2;2;
61592;PMS5003;47485;51.378;-1.342;2022-12-29T16:17:25;2;1;
61592;PMS5003;47485;51.378;-1.342;2022-12-29T16:19:55;5;2;
61592;PMS5003;47485;51.378;-1.342;2022-12-29T16:22:26;4;3;
61592;PMS5003;47485;51.378;-1.342;2022-12-29T16:24:57;1;0;
61592;PMS5003;47485;51.378;-1.342;2022-12-29T16:27:28;2;0;
61592;PMS5003;47485;51.378;-1.342;2022-12-29T16:30:02;1;1;
61592;PMS5003;47485;51.378;-1.342;2022-12-29T16:32:33;4;2;
61592;PMS5003;47485;51.378;-1.342;2022-12-29T16:35:17;1;0;
61592;PMS5003;47485;51.378;-1.342;2022-12-29T16:37:45;3;2;
61592;PMS5003;47485;51.378;-1.342;2022-12-29T16:40:22;1;1;
61592;PMS5003;47485;51.378;-1.342;2022-12-29T16:42:50;2;1;
61592;PMS5003;47485;51.378;-1.342;2022-12-29T16:45:38;2;2;
61592;PMS5003;47485;51.378;-1.342;2022-12-29T16:48:46;8;7;
61592;PMS5003;47485;51.378;-1.342;2022-12-29T16:51:17;3;1;
61592;PMS5003;47485;51.378;-1.342;2022-12-29T16:53:48;5;2;
61592;PMS5003;47485;51.378;-1.342;2022-12-29T16:56:18;6;3;
61592;PMS5003;47485;51.378;-1.342;2022-12-29T16:58:48;3;2;